createdAt,value
2023-01-29T00:00:13.981Z,152.80
2023-01-29T00:02:40.745Z,149.48
2023-01-29T00:05:26.105Z,143.02
2023-01-29T00:07:53.770Z,141.77
2023-01-29T00:10:20.563Z,139.13
2023-01-29T00:12:47.835Z,136.32
2023-01-29T00:15:14.310Z,133.38
2023-01-29T00:17:40.967Z,128.85
2023-01-29T00:20:07.405Z,127.70
2023-01-29T00:22:33.804Z,126.40
2023-01-29T00:25:00.284Z,125.47
2023-01-29T00:27:27.108Z,118.72
2023-01-29T00:29:53.464Z,117.13
2023-01-29T00:32:19.972Z,114.15
2023-01-29T00:34:47.391Z,112.88
2023-01-29T00:37:13.765Z,110.57
2023-01-29T00:39:47.866Z,105.30
2023-01-29T00:42:14.585Z,102.65
2023-01-29T00:44:41.208Z,104.65
2023-01-29T00:47:07.771Z,96.30
2023-01-29T00:49:34.457Z,97.68
2023-01-29T00:52:01.205Z,96.35
2023-01-29T00:54:27.919Z,92.63
2023-01-29T00:56:54.654Z,91.18
2023-01-29T00:59:21.068Z,89.90
2023-01-29T01:01:47.452Z,85.18
2023-01-29T01:04:14.312Z,84.38
2023-01-29T01:06:41.042Z,84.95
2023-01-29T01:09:07.635Z,82.72
2023-01-29T01:11:34.354Z,79.97
2023-01-29T01:14:01.126Z,78.47
2023-01-29T01:16:27.695Z,76.07
2023-01-29T01:18:54.209Z,74.35
2023-01-29T01:21:20.625Z,74.88
2023-01-29T01:23:47.017Z,73.50
2023-01-29T01:26:13.482Z,72.05
2023-01-29T01:28:39.948Z,70.45
2023-01-29T01:31:06.600Z,67.93
2023-01-29T01:33:33.050Z,63.45
2023-01-29T01:35:59.708Z,64.38
2023-01-29T01:38:26.483Z,63.65
2023-01-29T01:40:53.688Z,61.78
2023-01-29T01:43:20.203Z,60.08
2023-01-29T01:45:46.721Z,60.58
2023-01-29T01:48:13.206Z,57.00
2023-01-29T01:50:39.844Z,57.85
2023-01-29T01:53:06.322Z,55.13
2023-01-29T01:55:33.082Z,55.40
2023-01-29T01:57:59.576Z,52.22
2023-01-29T02:00:26.150Z,52.40
2023-01-29T02:02:53.034Z,53.50
2023-01-29T02:05:19.725Z,50.63
2023-01-29T02:07:46.781Z,48.08
2023-01-29T02:10:13.815Z,49.95
2023-01-29T02:12:40.561Z,46.20
2023-01-29T02:15:07.140Z,46.75
2023-01-29T02:17:34.328Z,43.17
2023-01-29T02:20:00.787Z,44.42
2023-01-29T02:22:28.092Z,42.50
2023-01-29T02:24:55.184Z,41.63
2023-01-29T02:27:21.619Z,44.58
2023-01-29T02:29:48.335Z,42.72
2023-01-29T02:32:15.054Z,40.33
2023-01-29T02:34:41.435Z,38.25
2023-01-29T02:37:07.895Z,40.00
2023-01-29T02:39:34.505Z,35.25
2023-01-29T02:42:01.412Z,36.25
2023-01-29T02:44:27.897Z,37.67
2023-01-29T02:46:54.478Z,35.80
2023-01-29T02:49:20.960Z,37.75
2023-01-29T02:51:47.349Z,33.38
2023-01-29T02:54:14.182Z,33.47
2023-01-29T02:56:40.679Z,34.75
2023-01-29T02:59:07.048Z,32.95
2023-01-29T03:01:33.522Z,32.13
2023-01-29T03:03:59.985Z,30.95
2023-01-29T03:06:26.513Z,31.90
2023-01-29T03:08:53.233Z,29.38
2023-01-29T03:11:19.645Z,30.70
2023-01-29T03:13:46.123Z,29.98
2023-01-29T03:16:12.929Z,29.10
2023-01-29T03:18:39.483Z,28.27
2023-01-29T03:21:05.893Z,29.20
2023-01-29T03:23:32.657Z,27.40
2023-01-29T03:25:59.185Z,28.10
2023-01-29T03:28:25.572Z,26.42
2023-01-29T03:30:52.022Z,23.88
2023-01-29T03:33:18.547Z,25.58
2023-01-29T03:35:45.425Z,26.65
2023-01-29T03:38:11.916Z,24.05
2023-01-29T03:40:38.483Z,24.27
2023-01-29T03:43:04.880Z,23.35
2023-01-29T03:45:31.978Z,25.15
2023-01-29T03:47:58.607Z,21.85
2023-01-29T03:50:25.182Z,25.38
2023-01-29T03:52:51.741Z,23.85
2023-01-29T03:55:19.238Z,21.80
2023-01-29T03:57:45.927Z,22.67
2023-01-29T04:00:12.456Z,21.73
2023-01-29T04:02:38.960Z,20.45
2023-01-29T04:05:07.169Z,22.05
2023-01-29T04:07:33.957Z,22.35
2023-01-29T04:10:00.955Z,22.20
2023-01-29T04:12:28.787Z,19.67
2023-01-29T04:14:55.498Z,19.15
2023-01-29T04:17:22.120Z,20.63
2023-01-29T04:19:49.086Z,18.52
2023-01-29T04:22:15.615Z,19.05
2023-01-29T04:24:42.326Z,19.35
2023-01-29T04:27:08.695Z,18.00
2023-01-29T04:29:35.614Z,19.60
2023-01-29T04:32:02.301Z,17.65
2023-01-29T04:34:28.826Z,17.48
2023-01-29T04:36:55.411Z,17.42
2023-01-29T04:39:21.907Z,16.98
2023-01-29T04:41:48.532Z,16.83
2023-01-29T04:44:14.911Z,17.40
2023-01-29T04:46:41.250Z,15.27
2023-01-29T04:49:07.931Z,17.42
2023-01-29T04:51:34.438Z,16.17
2023-01-29T04:54:00.846Z,16.33
2023-01-29T04:56:27.466Z,15.98
2023-01-29T04:58:53.897Z,16.63
2023-01-29T05:01:20.362Z,15.95
2023-01-29T05:03:47.124Z,14.88
2023-01-29T05:06:13.589Z,15.38
2023-01-29T05:08:40.236Z,16.05
2023-01-29T05:11:06.677Z,15.23
2023-01-29T05:13:33.508Z,15.65
2023-01-29T05:16:00.015Z,15.18
2023-01-29T05:18:26.857Z,14.23
2023-01-29T05:20:53.656Z,13.23
2023-01-29T05:23:20.233Z,14.32
2023-01-29T05:25:46.815Z,14.07
2023-01-29T05:28:13.549Z,12.05
2023-01-29T05:30:40.102Z,14.57
2023-01-29T05:33:06.754Z,13.25
2023-01-29T05:35:33.209Z,12.75
2023-01-29T05:37:59.797Z,13.57
2023-01-29T05:40:26.434Z,14.73
2023-01-29T05:42:53.008Z,12.80
2023-01-29T05:45:19.551Z,12.27
2023-01-29T05:47:46.036Z,14.05
2023-01-29T05:50:12.684Z,13.23
2023-01-29T05:52:39.334Z,12.90
2023-01-29T05:55:05.844Z,13.68
2023-01-29T05:57:32.334Z,11.82
2023-01-29T05:59:58.863Z,13.70
2023-01-29T06:02:25.538Z,12.70
2023-01-29T06:04:52.538Z,12.10
2023-01-29T06:07:19.403Z,11.75
2023-01-29T06:09:46.037Z,12.43
2023-01-29T06:12:12.968Z,11.13
2023-01-29T06:14:39.628Z,11.60
2023-01-29T06:17:06.128Z,12.60
2023-01-29T06:19:33.140Z,12.38
2023-01-29T06:21:59.561Z,13.00
2023-01-29T06:24:26.162Z,12.05
2023-01-29T06:26:53.059Z,11.80
2023-01-29T06:29:19.644Z,11.63
2023-01-29T06:31:46.315Z,12.13
2023-01-29T06:34:12.992Z,13.07
2023-01-29T06:36:39.368Z,12.75
2023-01-29T06:39:06.142Z,10.70
2023-01-29T06:41:32.792Z,11.73
2023-01-29T06:43:59.291Z,11.85
2023-01-29T06:46:25.709Z,12.38
2023-01-29T06:48:52.783Z,10.85
2023-01-29T06:51:19.622Z,11.18
2023-01-29T06:53:46.910Z,10.63
2023-01-29T06:56:13.795Z,11.32
2023-01-29T06:58:40.325Z,11.32
2023-01-29T07:01:06.878Z,10.27
2023-01-29T07:03:33.525Z,12.75
2023-01-29T07:06:00.075Z,12.65
2023-01-29T07:08:26.877Z,12.50
2023-01-29T07:10:53.453Z,10.63
2023-01-29T07:13:19.854Z,11.88
2023-01-29T07:15:46.444Z,10.68
2023-01-29T07:18:13.156Z,11.57
2023-01-29T07:20:39.564Z,11.00
2023-01-29T07:23:06.195Z,11.90
2023-01-29T07:25:32.794Z,11.63
2023-01-29T07:28:00.873Z,10.63
2023-01-29T07:30:27.581Z,11.73
2023-01-29T07:32:54.171Z,10.20
2023-01-29T07:35:20.837Z,11.65
2023-01-29T07:37:47.292Z,10.02
2023-01-29T07:40:13.878Z,10.00
2023-01-29T07:42:40.862Z,11.02
2023-01-29T07:45:07.478Z,11.00
2023-01-29T07:47:34.148Z,11.00
2023-01-29T07:50:00.670Z,9.70
2023-01-29T07:52:27.311Z,13.73
2023-01-29T07:54:53.740Z,11.95
2023-01-29T07:57:20.426Z,11.93
2023-01-29T07:59:47.367Z,11.48
2023-01-29T08:02:13.948Z,13.00
2023-01-29T08:04:40.533Z,10.75
2023-01-29T08:07:06.941Z,10.88
2023-01-29T08:09:33.716Z,11.63
2023-01-29T08:12:00.245Z,11.30
2023-01-29T08:14:26.917Z,11.85
2023-01-29T08:16:53.242Z,10.57
2023-01-29T08:19:20.565Z,10.82
2023-01-29T08:21:47.101Z,11.45
2023-01-29T08:24:13.848Z,11.20
2023-01-29T08:26:40.383Z,10.40
2023-01-29T08:29:06.997Z,11.98
2023-01-29T08:31:33.671Z,11.65
2023-01-29T08:34:00.155Z,12.35
2023-01-29T08:36:26.562Z,11.52
2023-01-29T08:38:53.644Z,13.85
2023-01-29T08:41:20.718Z,12.52
2023-01-29T08:43:47.229Z,11.55
2023-01-29T08:46:13.673Z,11.60
2023-01-29T08:48:40.131Z,11.25
2023-01-29T08:51:06.717Z,11.38
2023-01-29T08:53:33.569Z,17.65
2023-01-29T08:56:00.197Z,302.77
2023-01-29T08:58:27.880Z,156.10
2023-01-29T09:00:54.267Z,149.50
2023-01-29T09:03:21.111Z,128.60
2023-01-29T09:05:47.465Z,144.45
2023-01-29T09:08:14.007Z,249.90
2023-01-29T09:10:40.543Z,241.18
2023-01-29T09:13:07.280Z,215.10
2023-01-29T09:15:33.734Z,196.48
2023-01-29T09:18:00.159Z,182.55
2023-01-29T09:20:27.382Z,167.88
2023-01-29T09:22:53.911Z,161.93
2023-01-29T09:25:20.628Z,146.98
2023-01-29T09:27:47.220Z,136.32
2023-01-29T09:30:14.128Z,130.68
2023-01-29T09:32:56.016Z,207.23
2023-01-29T09:35:22.633Z,289.25
2023-01-29T09:37:49.389Z,241.23
2023-01-29T09:40:16.249Z,226.90
2023-01-29T09:42:42.806Z,210.35
2023-01-29T09:45:09.475Z,189.93
2023-01-29T09:47:35.981Z,183.35
2023-01-29T09:50:02.840Z,183.43
2023-01-29T09:52:29.523Z,171.63
2023-01-29T09:54:55.990Z,228.35
2023-01-29T09:57:22.445Z,248.55
2023-01-29T09:59:49.650Z,234.93
2023-01-29T10:02:16.292Z,240.90
2023-01-29T10:04:43.009Z,220.32
2023-01-29T10:07:09.506Z,201.13
2023-01-29T10:09:36.223Z,181.77
2023-01-29T10:12:02.958Z,188.95
2023-01-29T10:14:29.579Z,249.20
2023-01-29T10:16:56.078Z,278.48
2023-01-29T10:19:22.573Z,287.48
2023-01-29T10:21:49.014Z,240.85
2023-01-29T10:24:16.120Z,227.10
2023-01-29T10:26:43.132Z,208.65
2023-01-29T10:29:09.855Z,184.48
2023-01-29T10:31:36.350Z,174.43
2023-01-29T10:34:03.234Z,270.65
2023-01-29T10:36:29.818Z,324.67
2023-01-29T10:38:56.270Z,267.33
2023-01-29T10:41:22.732Z,244.43
2023-01-29T10:43:49.432Z,235.88
2023-01-29T10:46:16.227Z,230.60
2023-01-29T10:48:42.758Z,209.73
2023-01-29T10:51:10.234Z,192.40
2023-01-29T10:53:37.639Z,326.60
2023-01-29T10:56:14.039Z,330.25
2023-01-29T10:58:45.506Z,313.40
2023-01-29T11:01:13.772Z,290.63
2023-01-29T11:03:40.317Z,273.02
2023-01-29T11:06:06.734Z,256.17
2023-01-29T11:08:33.113Z,241.60
2023-01-29T11:10:59.946Z,226.63
2023-01-29T11:13:27.335Z,306.63
2023-01-29T11:15:53.754Z,331.30
2023-01-29T11:18:20.121Z,302.50
2023-01-29T11:20:46.655Z,276.35
2023-01-29T11:23:13.046Z,251.07
2023-01-29T11:25:39.600Z,232.18
2023-01-29T11:28:06.121Z,209.35
2023-01-29T11:30:32.984Z,192.52
2023-01-29T11:32:59.397Z,174.43
2023-01-29T11:35:25.981Z,172.63
2023-01-29T11:37:53.175Z,204.45
2023-01-29T11:40:19.967Z,189.50
2023-01-29T11:42:46.965Z,176.95
2023-01-29T11:45:13.798Z,169.18
2023-01-29T11:47:40.294Z,169.98
2023-01-29T11:50:06.792Z,164.73
2023-01-29T11:52:33.536Z,156.82
2023-01-29T11:54:59.861Z,157.77
2023-01-29T11:57:26.274Z,151.05
2023-01-29T11:59:52.680Z,141.07
2023-01-29T12:02:19.135Z,137.65
2023-01-29T12:04:46.829Z,132.85
2023-01-29T12:07:13.185Z,115.72
2023-01-29T12:09:39.585Z,111.05
2023-01-29T12:12:06.151Z,103.68
2023-01-29T12:14:33.175Z,93.07
2023-01-29T12:16:59.564Z,126.68
2023-01-29T12:19:25.990Z,291.75
2023-01-29T12:21:52.901Z,218.27
2023-01-29T12:24:19.332Z,214.45
2023-01-29T12:26:45.746Z,186.32
2023-01-29T12:29:12.834Z,172.88
2023-01-29T12:31:39.128Z,157.40
2023-01-29T12:34:05.573Z,141.35
2023-01-29T12:36:32.317Z,162.30
2023-01-29T12:38:58.912Z,220.35
2023-01-29T12:41:25.735Z,252.60
2023-01-29T12:43:52.377Z,235.88
2023-01-29T12:46:19.360Z,207.80
2023-01-29T12:48:46.867Z,193.63
2023-01-29T12:51:13.462Z,150.63
2023-01-29T12:53:40.128Z,162.27
2023-01-29T12:56:06.973Z,144.27
2023-01-29T12:58:34.073Z,138.60
2023-01-29T13:01:00.756Z,131.27
2023-01-29T13:03:27.960Z,130.57
2023-01-29T13:05:54.905Z,121.03
2023-01-29T13:08:21.430Z,117.72
2023-01-29T13:10:47.873Z,109.15
2023-01-29T13:13:14.347Z,102.05
2023-01-29T13:15:41.131Z,95.72
2023-01-29T13:18:08.083Z,91.40
2023-01-29T13:20:34.634Z,84.25
2023-01-29T13:23:01.380Z,82.25
2023-01-29T13:25:27.850Z,74.32
2023-01-29T13:27:54.964Z,143.73
2023-01-29T13:30:21.618Z,155.82
2023-01-29T13:32:48.389Z,140.65
2023-01-29T13:35:15.004Z,129.32
2023-01-29T13:37:41.914Z,122.63
2023-01-29T13:40:08.628Z,114.65
2023-01-29T13:42:35.374Z,108.15
2023-01-29T13:45:01.905Z,100.93
2023-01-29T13:47:28.838Z,148.30
2023-01-29T13:49:55.374Z,375.13
2023-01-29T13:52:22.173Z,297.02
2023-01-29T13:54:48.938Z,277.27
2023-01-29T13:57:15.559Z,287.35
2023-01-29T13:59:42.119Z,266.45
2023-01-29T14:02:09.261Z,250.55
2023-01-29T14:04:35.671Z,226.38
2023-01-29T14:07:02.245Z,205.25
2023-01-29T14:09:29.073Z,183.13
2023-01-29T14:11:56.087Z,174.00
2023-01-29T14:14:22.623Z,165.25
2023-01-29T14:16:49.738Z,160.88
2023-01-29T14:19:16.384Z,153.48
2023-01-29T14:21:42.892Z,144.82
2023-01-29T14:24:09.957Z,136.15
2023-01-29T14:26:36.482Z,127.03
2023-01-29T14:29:02.911Z,122.57
2023-01-29T14:31:29.499Z,113.47
2023-01-29T14:33:56.311Z,107.15
2023-01-29T14:36:22.717Z,102.20
2023-01-29T14:38:51.899Z,109.88
2023-01-29T14:41:19.974Z,171.80
2023-01-29T14:43:46.432Z,284.83
2023-01-29T14:46:12.965Z,312.83
2023-01-29T14:48:39.524Z,273.88
2023-01-29T14:51:07.061Z,256.25
2023-01-29T14:53:34.570Z,243.90
2023-01-29T14:56:01.024Z,224.05
2023-01-29T14:58:27.559Z,203.32
2023-01-29T15:00:54.396Z,165.73
2023-01-29T15:03:21.779Z,180.13
2023-01-29T15:05:48.156Z,288.60
2023-01-29T15:08:14.733Z,276.75
2023-01-29T15:10:41.489Z,255.95
2023-01-29T15:13:07.963Z,240.07
2023-01-29T15:15:34.503Z,221.50
2023-01-29T15:18:01.419Z,210.48
2023-01-29T15:20:28.381Z,191.40
2023-01-29T15:22:55.241Z,169.10
2023-01-29T15:25:21.832Z,154.63
2023-01-29T15:27:48.886Z,144.98
2023-01-29T15:30:15.737Z,135.50
2023-01-29T15:32:42.658Z,137.50
2023-01-29T15:35:09.014Z,132.50
2023-01-29T15:37:35.614Z,293.90
2023-01-29T15:40:02.773Z,434.05
2023-01-29T15:42:29.579Z,371.73
2023-01-29T15:44:56.736Z,349.30
2023-01-29T15:47:23.222Z,330.55
2023-01-29T15:49:49.727Z,316.00
2023-01-29T15:52:16.276Z,261.77
2023-01-29T15:54:42.624Z,304.25
2023-01-29T15:57:09.563Z,259.25
2023-01-29T15:59:36.083Z,243.15
2023-01-29T16:02:02.448Z,240.63
2023-01-29T16:04:29.029Z,237.45
2023-01-29T16:06:55.814Z,220.50
2023-01-29T16:09:22.411Z,221.10
2023-01-29T16:11:48.843Z,212.55
2023-01-29T16:14:15.429Z,206.95
2023-01-29T16:16:41.888Z,201.35
2023-01-29T16:19:08.995Z,203.13
2023-01-29T16:21:35.376Z,193.40
2023-01-29T16:24:01.893Z,190.75
2023-01-29T16:26:28.716Z,187.70
2023-01-29T16:28:55.680Z,188.35
2023-01-29T16:31:22.206Z,179.30
2023-01-29T16:33:48.961Z,175.60
2023-01-29T16:36:15.422Z,172.77
2023-01-29T16:38:41.888Z,167.82
2023-01-29T16:41:08.410Z,164.88
2023-01-29T16:43:41.955Z,163.50
2023-01-29T16:46:09.181Z,156.32
2023-01-29T16:48:35.873Z,151.82
2023-01-29T16:51:02.384Z,149.57
2023-01-29T16:53:28.682Z,149.45
2023-01-29T16:55:55.523Z,150.40
2023-01-29T16:58:21.946Z,146.85
2023-01-29T17:00:48.440Z,141.18
2023-01-29T17:03:14.960Z,137.15
2023-01-29T17:05:41.270Z,135.15
2023-01-29T17:08:08.085Z,130.10
2023-01-29T17:10:34.823Z,129.93
2023-01-29T17:13:01.301Z,129.10
2023-01-29T17:15:28.267Z,123.22
2023-01-29T17:17:55.097Z,117.93
2023-01-29T17:20:21.468Z,122.30
2023-01-29T17:22:48.260Z,119.20
2023-01-29T17:25:15.171Z,114.68
2023-01-29T17:27:41.913Z,111.57
2023-01-29T17:30:08.283Z,109.13
2023-01-29T17:32:43.525Z,105.93
2023-01-29T17:35:11.684Z,104.80
2023-01-29T17:37:38.336Z,99.57
2023-01-29T17:40:05.475Z,102.15
2023-01-29T17:42:31.908Z,97.03
2023-01-29T17:44:58.375Z,97.97
2023-01-29T17:47:25.518Z,93.40
2023-01-29T17:49:51.982Z,91.38
2023-01-29T17:52:18.631Z,88.60
2023-01-29T17:54:45.116Z,88.10
2023-01-29T17:57:11.835Z,88.57
2023-01-29T17:59:39.211Z,83.80
2023-01-29T18:02:05.788Z,80.43
2023-01-29T18:04:32.360Z,80.57
2023-01-29T18:06:58.819Z,81.63
2023-01-29T18:09:25.584Z,84.18
2023-01-29T18:11:52.140Z,76.30
2023-01-29T18:14:18.748Z,76.47
2023-01-29T18:16:45.384Z,74.82
2023-01-29T18:19:12.076Z,70.25
2023-01-29T18:21:38.638Z,75.50
2023-01-29T18:24:05.786Z,72.10
2023-01-29T18:26:32.685Z,69.60
2023-01-29T18:28:59.612Z,69.95
2023-01-29T18:31:26.140Z,69.07
2023-01-29T18:33:52.652Z,67.20
2023-01-29T18:36:19.918Z,65.80
2023-01-29T18:38:46.273Z,65.43
2023-01-29T18:41:13.005Z,64.00
2023-01-29T18:43:39.492Z,63.95
2023-01-29T18:46:06.185Z,61.30
2023-01-29T18:48:32.760Z,62.30
2023-01-29T18:50:59.885Z,61.15
2023-01-29T18:53:27.270Z,58.67
2023-01-29T18:55:53.631Z,57.45
2023-01-29T18:58:28.052Z,55.92
2023-01-29T19:01:01.465Z,53.00
2023-01-29T19:03:28.085Z,54.47
2023-01-29T19:05:54.785Z,51.97
2023-01-29T19:08:21.479Z,51.83
2023-01-29T19:10:48.223Z,53.33
2023-01-29T19:13:14.649Z,52.50
2023-01-29T19:15:41.603Z,48.30
2023-01-29T19:18:08.036Z,49.42
2023-01-29T19:20:34.457Z,48.20
2023-01-29T19:23:00.825Z,49.53
2023-01-29T19:25:27.762Z,47.85
2023-01-29T19:27:54.217Z,48.53
2023-01-29T19:30:20.723Z,46.95
2023-01-29T19:32:47.801Z,44.33
2023-01-29T19:35:14.114Z,43.10
2023-01-29T19:37:40.730Z,43.70
2023-01-29T19:40:07.264Z,42.58
2023-01-29T19:42:33.869Z,44.15
2023-01-29T19:45:00.504Z,43.33
2023-01-29T19:47:27.418Z,42.60
2023-01-29T19:49:54.095Z,41.78
2023-01-29T19:52:20.510Z,39.63
2023-01-29T19:54:47.459Z,37.50
2023-01-29T19:57:14.051Z,38.63
2023-01-29T19:59:40.500Z,39.60
2023-01-29T20:02:07.469Z,38.40
2023-01-29T20:04:34.272Z,37.65
2023-01-29T20:07:00.882Z,36.22
2023-01-29T20:09:27.289Z,34.63
2023-01-29T20:11:53.913Z,35.20
2023-01-29T20:14:20.478Z,36.38
2023-01-29T20:16:46.969Z,35.08
2023-01-29T20:19:15.134Z,36.63
2023-01-29T20:21:41.605Z,35.30
2023-01-29T20:24:08.950Z,35.47
2023-01-29T20:26:35.481Z,33.55
2023-01-29T20:29:01.857Z,34.35
2023-01-29T20:31:28.728Z,32.55
2023-01-29T20:33:55.821Z,31.77
2023-01-29T20:36:22.941Z,29.38
2023-01-29T20:38:49.326Z,31.33
2023-01-29T20:41:15.777Z,30.25
2023-01-29T20:43:42.437Z,30.75
2023-01-29T20:46:08.928Z,31.77
2023-01-29T20:48:35.562Z,29.60
2023-01-29T20:51:02.143Z,29.85
2023-01-29T20:53:28.545Z,30.63
2023-01-29T20:55:55.090Z,28.35
2023-01-29T20:58:21.543Z,27.90
2023-01-29T21:00:48.264Z,24.50
2023-01-29T21:03:14.982Z,28.08
2023-01-29T21:05:41.420Z,28.48
2023-01-29T21:08:07.860Z,27.23
2023-01-29T21:10:34.327Z,27.83
2023-01-29T21:13:01.572Z,26.38
2023-01-29T21:15:28.318Z,26.58
2023-01-29T21:17:55.293Z,26.20
2023-01-29T21:20:21.907Z,27.08
2023-01-29T21:22:48.327Z,26.40
2023-01-29T21:25:14.778Z,25.58
2023-01-29T21:27:41.163Z,23.90
2023-01-29T21:30:07.720Z,24.38
2023-01-29T21:32:34.198Z,25.40
2023-01-29T21:35:01.002Z,23.50
2023-01-29T21:37:28.027Z,25.30
2023-01-29T21:39:54.748Z,23.65
2023-01-29T21:42:21.851Z,23.02
2023-01-29T21:44:48.317Z,22.70
2023-01-29T21:47:15.118Z,23.77
2023-01-29T21:49:42.065Z,23.88
2023-01-29T21:52:08.454Z,24.00
2023-01-29T21:54:34.916Z,21.77
2023-01-29T21:57:01.379Z,22.58
2023-01-29T21:59:27.930Z,20.98
2023-01-29T22:01:54.410Z,21.90
2023-01-29T22:04:21.096Z,22.33
2023-01-29T22:06:48.132Z,21.90
2023-01-29T22:09:15.039Z,21.55
2023-01-29T22:11:41.702Z,21.20
2023-01-29T22:14:08.083Z,22.13
2023-01-29T22:16:34.577Z,21.27
2023-01-29T22:19:01.471Z,21.58
2023-01-29T22:21:28.165Z,20.35
2023-01-29T22:23:54.877Z,22.15
2023-01-29T22:26:21.367Z,20.80
2023-01-29T22:28:48.049Z,20.90
2023-01-29T22:31:15.169Z,20.05
2023-01-29T22:33:41.622Z,20.75
2023-01-29T22:36:08.291Z,18.48
2023-01-29T22:38:35.439Z,19.33
2023-01-29T22:41:01.791Z,20.25
2023-01-29T22:43:28.475Z,19.70
2023-01-29T22:45:54.908Z,20.20
2023-01-29T22:48:21.461Z,17.92
2023-01-29T22:50:48.656Z,18.20
2023-01-29T22:53:15.033Z,19.73
2023-01-29T22:55:41.465Z,18.05
2023-01-29T22:58:08.144Z,18.38
2023-01-29T23:00:34.496Z,18.98
2023-01-29T23:03:01.208Z,18.38
2023-01-29T23:05:27.826Z,17.98
2023-01-29T23:07:54.948Z,19.50
2023-01-29T23:10:21.297Z,19.27
2023-01-29T23:12:47.686Z,19.65
2023-01-29T23:15:14.315Z,18.00
2023-01-29T23:17:40.674Z,19.25
2023-01-29T23:20:07.021Z,18.83
2023-01-29T23:22:33.551Z,17.30
2023-01-29T23:25:00.048Z,19.63
2023-01-29T23:27:26.640Z,19.08
2023-01-29T23:29:53.264Z,18.50
2023-01-29T23:32:19.725Z,18.15
2023-01-29T23:34:46.342Z,18.02
2023-01-29T23:37:12.930Z,19.05
2023-01-29T23:39:39.418Z,17.20
2023-01-29T23:42:05.788Z,17.60
2023-01-29T23:44:32.344Z,19.83
2023-01-29T23:46:59.103Z,20.05
2023-01-29T23:49:25.537Z,16.85
2023-01-29T23:51:51.922Z,18.38
2023-01-29T23:54:18.437Z,17.70
2023-01-29T23:56:44.860Z,16.15
2023-01-29T23:59:11.403Z,16.70
